createdAt,value
2022-10-13T00:00:45.812Z,57.17
2022-10-13T00:03:33.899Z,57.35
2022-10-13T00:06:09.025Z,57.25
2022-10-13T00:08:42.580Z,57.26
2022-10-13T00:11:18.865Z,57.52
2022-10-13T00:13:52.137Z,57.28
2022-10-13T00:16:25.251Z,57.30
2022-10-13T00:18:57.680Z,57.45
2022-10-13T00:21:31.040Z,57.25
2022-10-13T00:24:03.607Z,57.32
2022-10-13T00:26:35.804Z,57.42
2022-10-13T00:29:08.067Z,57.41
2022-10-13T00:31:40.362Z,57.51
2022-10-13T00:34:12.852Z,57.54
2022-10-13T00:36:45.068Z,57.49
2022-10-13T00:39:17.605Z,57.55
2022-10-13T00:41:49.932Z,57.49
2022-10-13T00:45:02.124Z,57.52
2022-10-13T00:47:40.759Z,57.43
2022-10-13T00:50:16.377Z,57.63
2022-10-13T00:52:48.738Z,57.65
2022-10-13T00:55:24.983Z,57.53
2022-10-13T00:58:04.938Z,57.61
2022-10-13T01:00:38.079Z,57.52
2022-10-13T01:03:11.439Z,57.58
2022-10-13T01:05:44.848Z,57.45
2022-10-13T01:08:19.375Z,57.48
2022-10-13T01:10:58.412Z,57.59
2022-10-13T01:13:40.337Z,57.48
2022-10-13T01:16:24.733Z,57.55
2022-10-13T01:19:02.983Z,57.48
2022-10-13T01:21:43.778Z,57.31
2022-10-13T01:24:41.484Z,57.16
2022-10-13T01:27:38.429Z,57.25
2022-10-13T01:30:16.344Z,57.32
2022-10-13T01:33:02.680Z,57.39
2022-10-13T01:35:41.188Z,57.45
2022-10-13T01:38:22.333Z,57.38
2022-10-13T01:41:03.487Z,57.35
2022-10-13T01:43:39.172Z,57.39
2022-10-13T01:46:13.811Z,57.40
2022-10-13T01:48:47.204Z,57.38
2022-10-13T01:51:22.844Z,57.33
2022-10-13T01:53:55.000Z,57.24
2022-10-13T01:56:27.325Z,57.29
2022-10-13T01:59:02.960Z,57.39
2022-10-13T02:01:47.683Z,57.42
2022-10-13T02:04:31.525Z,57.35
2022-10-13T02:07:13.269Z,57.36
2022-10-13T02:09:52.694Z,57.41
2022-10-13T02:12:32.076Z,57.42
2022-10-13T02:15:08.860Z,57.42
2022-10-13T02:17:41.640Z,57.31
2022-10-13T02:20:16.357Z,57.49
2022-10-13T02:22:55.733Z,57.34
2022-10-13T02:25:29.008Z,57.61
2022-10-13T02:28:02.730Z,57.68
2022-10-13T02:30:35.818Z,57.53
2022-10-13T02:33:09.213Z,57.57
2022-10-13T02:35:40.155Z,57.63
2022-10-13T02:38:12.775Z,57.35
2022-10-13T02:40:45.268Z,57.34
2022-10-13T02:43:17.900Z,57.40
2022-10-13T02:45:50.076Z,57.41
2022-10-13T02:48:22.697Z,57.51
2022-10-13T02:50:54.971Z,57.51
2022-10-13T03:06:36.313Z,57.05
2022-10-13T03:09:08.588Z,57.13
2022-10-13T03:11:40.791Z,57.12
2022-10-13T03:14:12.944Z,57.10
2022-10-13T03:16:45.048Z,57.26
2022-10-13T03:19:17.119Z,57.09
2022-10-13T03:21:49.280Z,57.10
2022-10-13T03:24:21.405Z,57.13
2022-10-13T03:26:53.669Z,57.08
2022-10-13T03:29:25.969Z,57.05
2022-10-13T03:31:58.113Z,57.09
2022-10-13T03:34:30.213Z,57.15
2022-10-13T03:37:02.802Z,57.23
2022-10-13T03:39:34.949Z,57.11
2022-10-13T03:42:07.800Z,57.25
2022-10-13T03:44:40.379Z,57.27
2022-10-13T03:47:12.483Z,57.20
2022-10-13T03:49:44.958Z,57.18
2022-10-13T03:52:17.351Z,57.12
2022-10-13T03:54:49.943Z,57.09
2022-10-13T03:57:22.066Z,57.15
2022-10-13T03:59:56.185Z,57.20
2022-10-13T04:02:28.798Z,57.18
2022-10-13T04:05:01.045Z,57.18
2022-10-13T04:07:33.651Z,57.23
2022-10-13T04:10:09.041Z,57.25
2022-10-13T04:12:43.610Z,57.22
2022-10-13T04:15:15.969Z,57.32
2022-10-13T04:17:48.112Z,57.21
2022-10-13T04:20:20.963Z,57.36
2022-10-13T04:22:54.275Z,57.33
2022-10-13T04:25:26.452Z,57.35
2022-10-13T04:27:58.545Z,57.43
2022-10-13T04:30:31.405Z,57.58
2022-10-13T04:33:03.731Z,57.45
2022-10-13T04:35:40.453Z,57.56
2022-10-13T04:38:12.577Z,57.50
2022-10-13T04:40:44.637Z,57.53
2022-10-13T04:43:16.763Z,57.57
2022-10-13T04:45:49.268Z,57.69
2022-10-13T04:48:21.408Z,57.61
2022-10-13T04:51:03.876Z,57.70
2022-10-13T04:53:36.352Z,57.61
2022-10-13T04:56:11.846Z,57.68
2022-10-13T04:58:46.058Z,57.72
2022-10-13T05:01:22.338Z,57.66
2022-10-13T05:03:56.392Z,57.78
2022-10-13T05:06:31.002Z,57.75
2022-10-13T05:09:03.180Z,57.91
2022-10-13T05:11:35.403Z,57.81
2022-10-13T05:14:07.497Z,57.86
2022-10-13T05:16:39.573Z,57.83
2022-10-13T05:19:11.671Z,57.79
2022-10-13T05:21:47.885Z,58.01
2022-10-13T05:24:36.758Z,57.73
2022-10-13T05:27:12.981Z,57.67
2022-10-13T05:29:45.233Z,57.89
2022-10-13T05:32:17.864Z,57.97
2022-10-13T05:34:51.953Z,57.61
2022-10-13T05:37:24.183Z,57.52
2022-10-13T05:39:56.269Z,57.21
2022-10-13T05:42:29.909Z,57.01
2022-10-13T05:45:02.188Z,56.81
2022-10-13T05:47:34.347Z,56.78
2022-10-13T05:50:07.389Z,56.62
2022-10-13T05:52:39.746Z,56.41
2022-10-13T05:55:15.685Z,56.16
2022-10-13T05:57:49.311Z,55.99
2022-10-13T06:00:22.744Z,56.04
2022-10-13T06:02:58.523Z,55.90
2022-10-13T06:05:29.270Z,55.78
2022-10-13T06:08:02.095Z,55.67
2022-10-13T06:10:34.258Z,55.62
2022-10-13T06:13:06.453Z,55.37
2022-10-13T06:15:38.694Z,55.20
2022-10-13T06:18:12.233Z,55.13
2022-10-13T06:20:44.952Z,55.13
2022-10-13T06:23:17.182Z,55.09
2022-10-13T06:25:53.364Z,55.03
2022-10-13T06:28:25.586Z,54.71
2022-10-13T06:30:57.769Z,54.41
2022-10-13T06:33:29.913Z,54.28
2022-10-13T06:36:06.698Z,53.97
2022-10-13T06:38:38.793Z,53.92
2022-10-13T06:41:11.203Z,53.64
2022-10-13T06:43:43.403Z,53.12
2022-10-13T06:46:15.607Z,52.99
2022-10-13T06:48:50.005Z,52.94
2022-10-13T06:51:22.619Z,52.77
2022-10-13T06:53:56.627Z,52.72
2022-10-13T06:56:30.205Z,52.34
2022-10-13T06:59:02.439Z,52.26
2022-10-13T07:01:37.891Z,51.77
2022-10-13T07:04:13.884Z,51.41
2022-10-13T07:06:46.195Z,50.98
2022-10-13T07:09:18.343Z,50.72
2022-10-13T07:11:50.734Z,50.57
2022-10-13T07:14:22.917Z,50.67
2022-10-13T07:16:55.060Z,50.50
2022-10-13T07:19:27.525Z,50.27
2022-10-13T07:21:59.653Z,49.71
2022-10-13T07:24:31.887Z,49.57
2022-10-13T07:27:07.801Z,49.23
2022-10-13T07:29:51.402Z,48.74
2022-10-13T07:32:23.519Z,48.67
2022-10-13T07:34:56.590Z,48.52
2022-10-13T07:37:28.859Z,48.28
2022-10-13T07:40:01.386Z,47.95
2022-10-13T07:42:33.502Z,47.79
2022-10-13T07:45:06.577Z,47.51
2022-10-13T07:47:38.725Z,47.20
2022-10-13T07:50:11.978Z,46.78
2022-10-13T07:52:44.315Z,46.64
2022-10-13T07:55:16.543Z,45.99
2022-10-13T07:57:48.851Z,45.91
2022-10-13T08:00:21.793Z,45.61
2022-10-13T08:02:54.127Z,45.27
2022-10-13T08:05:26.235Z,44.92
2022-10-13T08:07:58.751Z,45.11
2022-10-13T08:10:31.076Z,45.13
2022-10-13T08:13:03.223Z,44.72
2022-10-13T08:15:35.347Z,44.63
2022-10-13T08:18:07.499Z,44.19
2022-10-13T08:20:43.820Z,43.91
2022-10-13T08:23:16.423Z,43.84
2022-10-13T08:25:48.789Z,43.39
2022-10-13T08:28:22.922Z,43.13
2022-10-13T08:30:57.819Z,42.98
2022-10-13T08:33:31.119Z,42.64
2022-10-13T08:36:03.437Z,42.27
2022-10-13T08:38:35.549Z,42.32
2022-10-13T08:41:19.544Z,42.32
2022-10-13T08:44:33.090Z,42.16
2022-10-13T08:46:54.620Z,41.70
2022-10-13T08:49:26.765Z,41.36
2022-10-13T08:51:59.911Z,41.76
2022-10-13T08:54:32.204Z,41.02
2022-10-13T08:57:05.296Z,40.50
2022-10-13T08:59:37.670Z,40.30
2022-10-13T09:02:15.370Z,40.59
2022-10-13T09:04:50.944Z,40.48
2022-10-13T09:07:25.748Z,40.37
2022-10-13T09:09:58.612Z,40.24
2022-10-13T09:12:31.692Z,39.90
2022-10-13T09:15:07.486Z,39.39
2022-10-13T09:17:41.804Z,39.39
2022-10-13T09:20:22.544Z,39.12
2022-10-13T09:23:07.155Z,39.34
2022-10-13T09:25:45.397Z,38.95
2022-10-13T09:28:23.691Z,38.89
2022-10-13T09:31:10.282Z,38.42
2022-10-13T09:33:46.975Z,37.76
2022-10-13T09:36:19.566Z,38.14
2022-10-13T09:39:09.550Z,38.19
2022-10-13T09:41:42.905Z,37.96
2022-10-13T09:44:19.294Z,37.73
2022-10-13T09:46:56.604Z,37.79
2022-10-13T09:49:35.889Z,37.44
2022-10-13T09:52:16.923Z,37.19
2022-10-13T09:54:51.539Z,37.00
2022-10-13T09:57:32.998Z,37.38
2022-10-13T10:00:18.375Z,37.47
2022-10-13T10:02:55.364Z,37.63
2022-10-13T10:05:30.628Z,37.38
2022-10-13T10:08:05.520Z,37.16
2022-10-13T10:10:40.956Z,37.08
2022-10-13T10:13:13.399Z,36.73
2022-10-13T10:15:54.344Z,36.51
2022-10-13T10:18:38.564Z,36.30
2022-10-13T10:21:19.947Z,36.26
2022-10-13T10:24:01.249Z,36.52
2022-10-13T10:26:47.500Z,36.48
2022-10-13T10:29:30.760Z,36.07
2022-10-13T10:32:16.336Z,36.07
2022-10-13T10:34:54.786Z,36.00
2022-10-13T10:37:41.475Z,36.18
2022-10-13T10:40:25.519Z,35.88
2022-10-13T10:43:16.761Z,35.82
2022-10-13T10:45:50.539Z,35.70
2022-10-13T10:48:25.350Z,35.23
2022-10-13T10:50:58.320Z,35.60
2022-10-13T10:53:39.523Z,35.44
2022-10-13T10:56:23.056Z,35.08
2022-10-13T10:59:02.669Z,35.04
2022-10-13T11:01:40.504Z,35.23
2022-10-13T11:04:36.453Z,35.00
2022-10-13T11:07:14.364Z,34.67
2022-10-13T11:10:19.016Z,34.38
2022-10-13T11:13:22.344Z,33.98
2022-10-13T11:15:55.604Z,34.09
2022-10-13T11:19:10.448Z,34.10
2022-10-13T11:22:19.776Z,33.69
2022-10-13T11:25:01.863Z,33.73
2022-10-13T11:27:47.054Z,33.54
2022-10-13T11:30:50.285Z,33.70
2022-10-13T11:33:56.514Z,33.38
2022-10-13T11:36:55.840Z,33.47
2022-10-13T11:40:06.970Z,33.53
2022-10-13T11:43:23.651Z,33.46
2022-10-13T11:46:08.344Z,33.32
2022-10-13T11:49:02.981Z,33.24
2022-10-13T11:51:58.011Z,33.09
2022-10-13T11:54:37.973Z,33.18
2022-10-13T11:57:22.246Z,33.14
2022-10-13T11:59:56.445Z,33.14
2022-10-13T12:02:29.809Z,33.13
2022-10-13T12:05:08.924Z,32.87
2022-10-13T12:07:44.076Z,33.02
2022-10-13T12:10:24.862Z,32.89
2022-10-13T12:12:58.538Z,32.88
2022-10-13T12:15:36.224Z,32.96
2022-10-13T12:18:23.615Z,32.76
2022-10-13T12:20:57.994Z,32.73
2022-10-13T12:23:31.491Z,32.52
2022-10-13T12:26:04.410Z,32.62
2022-10-13T12:28:50.929Z,32.60
2022-10-13T12:31:25.931Z,32.25
2022-10-13T12:33:59.760Z,32.24
2022-10-13T12:36:33.879Z,32.29
2022-10-13T12:39:12.083Z,32.25
2022-10-13T12:41:47.906Z,32.35
2022-10-13T12:44:22.273Z,32.47
2022-10-13T12:46:58.866Z,32.57
2022-10-13T12:49:32.863Z,32.43
2022-10-13T12:52:14.680Z,32.41
2022-10-13T12:54:53.460Z,32.37
2022-10-13T12:57:36.261Z,32.39
2022-10-13T13:00:24.313Z,32.29
2022-10-13T13:02:58.626Z,32.25
2022-10-13T13:05:36.259Z,32.19
2022-10-13T13:08:23.649Z,32.21
2022-10-13T13:10:59.895Z,32.04
2022-10-13T13:13:32.739Z,31.68
2022-10-13T13:16:18.921Z,31.44
2022-10-13T13:18:51.672Z,31.50
2022-10-13T13:21:23.909Z,31.42
2022-10-13T13:23:55.993Z,31.45
2022-10-13T13:26:28.223Z,31.37
2022-10-13T13:29:00.395Z,31.24
2022-10-13T13:31:32.480Z,31.08
2022-10-13T13:34:04.575Z,31.06
2022-10-13T13:36:36.781Z,31.38
2022-10-13T13:39:13.736Z,31.26
2022-10-13T13:41:45.870Z,31.24
2022-10-13T13:44:18.028Z,31.41
2022-10-13T13:46:50.092Z,31.50
2022-10-13T13:49:22.284Z,31.35
2022-10-13T13:51:54.389Z,31.58
2022-10-13T13:54:26.527Z,31.37
2022-10-13T13:56:58.997Z,31.49
2022-10-13T13:59:31.369Z,31.49
2022-10-13T14:02:03.497Z,31.64
2022-10-13T14:04:35.986Z,31.49
2022-10-13T14:07:08.113Z,31.60
2022-10-13T14:09:40.389Z,31.80
2022-10-13T14:12:12.834Z,31.65
2022-10-13T14:14:44.990Z,31.78
2022-10-13T14:17:17.265Z,31.75
2022-10-13T14:19:49.324Z,31.77
2022-10-13T14:22:21.735Z,31.87
2022-10-13T14:24:54.199Z,31.96
2022-10-13T14:27:26.367Z,31.90
2022-10-13T14:29:58.465Z,31.98
2022-10-13T14:32:30.564Z,32.03
2022-10-13T14:35:02.590Z,32.13
2022-10-13T14:37:35.033Z,32.11
2022-10-13T14:40:09.171Z,32.10
2022-10-13T14:42:42.682Z,32.11
2022-10-13T14:45:15.947Z,32.14
2022-10-13T14:47:48.193Z,32.34
2022-10-13T14:50:20.353Z,32.12
2022-10-13T14:52:52.424Z,32.19
2022-10-13T14:55:24.665Z,32.23
2022-10-13T14:57:56.703Z,32.02
2022-10-13T15:00:28.919Z,32.14
2022-10-13T15:03:01.017Z,32.36
2022-10-13T15:05:33.496Z,32.26
2022-10-13T15:08:05.978Z,32.29
2022-10-13T15:10:38.848Z,32.25
2022-10-13T15:13:10.909Z,32.26
2022-10-13T15:15:49.943Z,32.36
2022-10-13T15:18:25.791Z,32.50
2022-10-13T15:21:00.771Z,32.55
2022-10-13T15:23:32.891Z,32.60
2022-10-13T15:26:05.749Z,32.67
2022-10-13T15:28:41.081Z,32.78
2022-10-13T15:31:14.027Z,32.63
2022-10-13T15:33:49.219Z,32.62
2022-10-13T15:36:22.238Z,32.71
2022-10-13T15:38:54.767Z,32.82
2022-10-13T15:41:26.884Z,32.84
2022-10-13T15:43:58.984Z,32.98
2022-10-13T15:46:31.612Z,32.93
2022-10-13T15:49:03.792Z,33.00
2022-10-13T15:51:36.140Z,33.05
2022-10-13T15:54:08.525Z,33.23
2022-10-13T15:56:40.591Z,33.51
2022-10-13T15:59:12.772Z,33.50
2022-10-13T16:01:45.004Z,33.47
2022-10-13T16:04:17.171Z,33.65
2022-10-13T16:06:49.307Z,33.61
2022-10-13T16:09:21.480Z,33.85
2022-10-13T16:11:55.340Z,33.89
2022-10-13T16:14:27.438Z,33.65
2022-10-13T16:16:59.556Z,33.68
2022-10-13T16:19:31.643Z,33.72
2022-10-13T16:22:04.131Z,34.03
2022-10-13T16:24:36.344Z,34.12
2022-10-13T16:27:09.965Z,34.18
2022-10-13T16:29:42.038Z,34.41
2022-10-13T16:32:14.212Z,34.25
2022-10-13T16:34:47.735Z,34.35
2022-10-13T16:37:20.272Z,34.64
2022-10-13T16:39:52.638Z,34.81
2022-10-13T16:42:24.909Z,35.05
2022-10-13T16:44:57.077Z,35.14
2022-10-13T16:47:29.292Z,35.00
2022-10-13T16:50:01.347Z,35.24
2022-10-13T16:52:33.585Z,35.35
2022-10-13T16:55:06.672Z,35.42
2022-10-13T16:57:38.789Z,35.75
2022-10-13T17:00:12.928Z,35.66
2022-10-13T17:02:45.421Z,35.97
2022-10-13T17:05:17.808Z,35.72
2022-10-13T17:07:49.935Z,35.81
2022-10-13T17:10:21.986Z,36.06
2022-10-13T17:12:54.651Z,36.18
2022-10-13T17:15:26.852Z,36.42
2022-10-13T17:17:58.910Z,36.20
2022-10-13T17:20:31.121Z,36.33
2022-10-13T17:23:03.192Z,36.27
2022-10-13T17:25:36.704Z,36.51
2022-10-13T17:28:08.764Z,36.49
2022-10-13T17:30:40.938Z,36.75
2022-10-13T17:33:13.400Z,36.72
2022-10-13T17:35:45.483Z,36.65
2022-10-13T17:38:17.511Z,36.91
2022-10-13T17:40:49.567Z,36.88
2022-10-13T17:43:21.606Z,36.81
2022-10-13T17:45:53.791Z,37.12
2022-10-13T17:48:25.987Z,37.18
2022-10-13T17:51:02.496Z,37.26
2022-10-13T17:53:34.604Z,37.06
2022-10-13T17:56:09.141Z,37.15
2022-10-13T17:58:43.155Z,37.19
2022-10-13T18:01:18.839Z,37.27
2022-10-13T18:03:54.343Z,37.29
2022-10-13T18:06:26.789Z,37.36
2022-10-13T18:08:58.878Z,37.50
2022-10-13T18:11:31.061Z,37.42
2022-10-13T18:14:03.315Z,37.59
2022-10-13T18:16:36.607Z,37.69
2022-10-13T18:19:08.706Z,37.52
2022-10-13T18:21:40.800Z,37.79
2022-10-13T18:24:13.555Z,38.09
2022-10-13T18:26:45.729Z,38.03
2022-10-13T18:29:17.883Z,38.32
2022-10-13T18:31:50.028Z,38.40
2022-10-13T18:34:22.267Z,38.71
2022-10-13T18:36:56.073Z,39.04
2022-10-13T18:39:30.318Z,39.28
2022-10-13T18:42:02.543Z,39.39
2022-10-13T18:44:34.583Z,39.65
2022-10-13T18:47:07.436Z,39.84
2022-10-13T18:49:39.488Z,40.00
2022-10-13T18:52:12.131Z,40.22
2022-10-13T18:54:45.612Z,40.45
2022-10-13T18:57:17.889Z,40.57
2022-10-13T18:59:50.147Z,40.79
2022-10-13T19:02:22.439Z,40.75
2022-10-13T19:04:54.612Z,41.02
2022-10-13T19:07:26.856Z,41.25
2022-10-13T19:09:58.923Z,41.27
2022-10-13T19:12:30.992Z,41.45
2022-10-13T19:15:03.135Z,41.67
2022-10-13T19:17:35.353Z,41.85
2022-10-13T19:20:09.659Z,41.94
2022-10-13T19:22:41.752Z,42.17
2022-10-13T19:25:13.987Z,42.29
2022-10-13T19:27:46.104Z,42.37
2022-10-13T19:30:18.537Z,42.56
2022-10-13T19:32:50.652Z,42.61
2022-10-13T19:35:22.770Z,42.70
2022-10-13T19:37:54.852Z,42.95
2022-10-13T19:40:26.988Z,43.03
2022-10-13T19:42:59.964Z,43.23
2022-10-13T19:45:32.380Z,43.38
2022-10-13T19:48:04.881Z,43.57
2022-10-13T19:50:37.916Z,43.51
2022-10-13T19:53:10.278Z,43.79
2022-10-13T19:55:44.874Z,43.92
2022-10-13T19:58:18.003Z,44.08
2022-10-13T20:00:50.753Z,44.22
2022-10-13T20:03:22.840Z,44.29
2022-10-13T20:05:54.932Z,44.43
2022-10-13T20:08:27.083Z,44.58
2022-10-13T20:11:00.790Z,44.68
2022-10-13T20:13:32.843Z,44.84
2022-10-13T20:16:11.128Z,45.03
2022-10-13T20:18:43.896Z,45.14
2022-10-13T20:21:17.939Z,45.19
2022-10-13T20:23:50.013Z,45.31
2022-10-13T20:26:22.854Z,45.49
2022-10-13T20:28:56.147Z,45.58
2022-10-13T20:31:29.875Z,45.73
2022-10-13T20:34:02.324Z,45.75
2022-10-13T20:36:38.570Z,45.90
2022-10-13T20:39:11.402Z,45.94
2022-10-13T20:41:43.892Z,46.02
2022-10-13T20:44:16.004Z,46.19
2022-10-13T20:46:48.083Z,46.23
2022-10-13T20:49:20.280Z,46.32
2022-10-13T20:51:52.303Z,46.38
2022-10-13T20:54:25.015Z,46.53
2022-10-13T20:56:58.022Z,46.58
2022-10-13T20:59:30.147Z,46.65
2022-10-13T21:02:02.249Z,46.76
2022-10-13T21:04:34.593Z,46.85
2022-10-13T21:07:06.727Z,46.90
2022-10-13T21:09:39.415Z,46.89
2022-10-13T21:12:11.652Z,47.04
2022-10-13T21:14:43.791Z,47.15
2022-10-13T21:17:16.005Z,47.26
2022-10-13T21:19:48.371Z,47.31
2022-10-13T21:22:20.897Z,47.33
2022-10-13T21:24:53.163Z,47.51
2022-10-13T21:27:25.428Z,47.56
2022-10-13T21:29:57.514Z,47.62
2022-10-13T21:32:30.789Z,47.76
2022-10-13T21:35:02.889Z,47.85
2022-10-13T21:37:38.113Z,47.91
2022-10-13T21:40:12.339Z,48.06
2022-10-13T21:42:44.492Z,48.16
2022-10-13T21:45:16.694Z,48.27
2022-10-13T21:47:51.280Z,48.33
2022-10-13T21:50:23.505Z,48.48
2022-10-13T21:52:55.600Z,48.54
2022-10-13T21:55:27.753Z,48.63
2022-10-13T21:58:05.144Z,48.76
2022-10-13T22:00:37.794Z,48.83
2022-10-13T22:03:09.904Z,48.87
2022-10-13T22:05:42.095Z,48.96
2022-10-13T22:08:14.149Z,49.14
2022-10-13T22:10:46.271Z,49.30
2022-10-13T22:13:18.272Z,49.33
2022-10-13T22:15:50.638Z,49.40
2022-10-13T22:18:22.775Z,49.48
2022-10-13T22:20:54.868Z,49.64
2022-10-13T22:23:26.953Z,49.69
2022-10-13T22:25:59.013Z,49.74
2022-10-13T22:28:36.894Z,49.86
2022-10-13T22:31:11.353Z,49.94
2022-10-13T22:33:44.793Z,49.95
2022-10-13T22:36:18.848Z,50.04
2022-10-13T22:38:52.653Z,50.05
2022-10-13T22:41:24.799Z,50.09
2022-10-13T22:43:58.780Z,50.21
2022-10-13T22:46:33.113Z,50.30
2022-10-13T22:49:07.037Z,50.29
2022-10-13T22:51:39.325Z,50.30
2022-10-13T22:54:12.517Z,50.43
2022-10-13T22:56:44.613Z,50.50
2022-10-13T22:59:16.684Z,50.53
2022-10-13T23:01:50.091Z,50.53
2022-10-13T23:04:22.061Z,50.69
2022-10-13T23:06:54.207Z,50.75
2022-10-13T23:09:26.252Z,50.85
2022-10-13T23:11:59.909Z,50.86
2022-10-13T23:14:32.303Z,50.93
2022-10-13T23:17:04.505Z,51.05
2022-10-13T23:19:36.965Z,51.08
2022-10-13T23:22:09.209Z,51.27
2022-10-13T23:24:41.455Z,51.35
2022-10-13T23:27:13.732Z,51.37
2022-10-13T23:29:45.989Z,51.48
2022-10-13T23:32:18.149Z,51.47
2022-10-13T23:34:50.243Z,51.59
2022-10-13T23:37:22.733Z,51.69
2022-10-13T23:39:55.214Z,51.66
2022-10-13T23:42:27.316Z,51.75
2022-10-13T23:44:59.721Z,51.80
2022-10-13T23:47:31.816Z,51.94
2022-10-13T23:50:04.005Z,52.06
2022-10-13T23:52:36.079Z,52.08
2022-10-13T23:55:09.292Z,52.27
2022-10-13T23:57:41.360Z,52.27
